This is the latest recevied weather packets stored in our database for station/object FW4141. If no packets are shown the sender has not sent any weather packets the latest 10 day(s).
| Time | Temp. | Humidity | Pressure | Rain* | Wind** | Luminosity | Snow |
|---|---|---|---|---|---|---|---|
| 1777579839 | 10° C | 71% | 1021.3 hPa | 0 mm | - | - | - |
| 1777576890 | 11.11° C | 65% | 1021.3 hPa | 0 mm | - | - | - |
| 1777573228 | 13.89° C | 50% | 1021.2 hPa | 0 mm | - | - | - |
| 1777572618 | 15° C | 43% | 1021.2 hPa | 0 mm | - | - | - |
| 1777570882 | 17.22° C | 40% | 1021 hPa | 0 mm | - | - | - |
| 1777568471 | 17.78° C | 34% | 1021.3 hPa | 0 mm | - | - | - |
| 1777565462 | 18.33° C | 32% | 1021.4 hPa | 0 mm | - | - | - |
| 1777562430 | 18.89° C | 30% | 1021.5 hPa | 0 mm | - | - | - |
| 1777555274 | 20° C | 24% | 1021.9 hPa | 0 mm | - | - | - |
| 1777552844 | 17.22° C | 28% | 1022.3 hPa | 0 mm | - | - | - |
| 1777549266 | 17.22° C | 26% | 1022.7 hPa | 0 mm | - | - | - |
| 1777546552 | 16.11° C | 26% | 1023 hPa | 0 mm | - | - | - |
| 1777544762 | 16.11° C | 28% | 1023.3 hPa | 0 mm | - | - | - |
| 1777544138 | 14.44° C | 29% | 1023.2 hPa | 0 mm | - | - | - |
| 1777541723 | 12.78° C | 30% | 1023.5 hPa | 0 mm | - | - | - |
| 1777536353 | 12.78° C | 30% | 1023.9 hPa | 0 mm | - | - | - |
| 1777533940 | 11.67° C | 38% | 1023.7 hPa | 0 mm | - | - | - |
| 1777526155 | 7.78° C | 59% | 1023.9 hPa | 0 mm | - | - | - |
| 1777520723 | -1.11° C | 82% | 1023.8 hPa | 0 mm | - | - | - |
| 1777519538 | -1.67° C | 82% | 1024 hPa | 0 mm | - | - | - |
| 1777518974 | -2.22° C | 81% | 1023.9 hPa | 0 mm | - | - | - |
| 1777515958 | -1.67° C | 80% | 1023.8 hPa | 0 mm | - | - | - |
| 1777503949 | -0.56° C | 72% | 1023.8 hPa | 0 mm | - | - | - |
| 1777503345 | 0° C | 72% | 1024 hPa | 0 mm | - | - | - |
| 1777494356 | 2.78° C | 62% | 1023.6 hPa | 0 mm | - | - | - |
* Rain latest hour (hover to see other rain measurements)
** Current wind speed in m/s (hover to see current wind gust speed)